createdAt,value
2022-08-10T00:00:04.768Z,9
2022-08-10T00:01:04.714Z,9
2022-08-10T00:02:05.278Z,9
2022-08-10T00:03:05.147Z,8
2022-08-10T00:04:05.091Z,9
2022-08-10T00:05:05.048Z,9
2022-08-10T00:06:05.240Z,9
2022-08-10T00:07:06.110Z,9
2022-08-10T00:08:05.717Z,9
2022-08-10T00:09:05.573Z,9
2022-08-10T00:10:05.441Z,9
2022-08-10T00:11:05.306Z,9
2022-08-10T00:11:15.347Z,9
2022-08-10T00:12:02.997Z,8
2022-08-10T00:13:02.804Z,9
2022-08-10T00:14:02.703Z,8
2022-08-10T00:15:02.666Z,8
2022-08-10T00:16:02.440Z,8
2022-08-10T00:17:02.996Z,8
2022-08-10T00:18:03.589Z,8
2022-08-10T00:19:03.058Z,9
2022-08-10T00:20:08.762Z,8
2022-08-10T00:21:03.638Z,9
2022-08-10T00:22:02.315Z,9
2022-08-10T00:23:02.209Z,8
2022-08-10T00:24:02.844Z,9
2022-08-10T00:25:02.500Z,9
2022-08-10T00:26:02.409Z,8
2022-08-10T00:27:52.401Z,8
2022-08-10T00:28:04.249Z,8
2022-08-10T00:29:03.195Z,8
2022-08-10T00:30:03.457Z,8
2022-08-10T00:31:03.418Z,9
2022-08-10T00:32:02.403Z,9
2022-08-10T00:33:02.318Z,8
2022-08-10T00:34:02.845Z,8
2022-08-10T00:35:02.533Z,9
2022-08-10T00:36:02.429Z,9
2022-08-10T00:37:03.133Z,8
2022-08-10T00:38:03.039Z,8
2022-08-10T00:39:02.973Z,9
2022-08-10T00:40:02.872Z,8
2022-08-10T00:41:03.434Z,9
2022-08-10T00:42:07.623Z,8
2022-08-10T00:43:03.246Z,9
2022-08-10T00:44:03.584Z,9
2022-08-10T00:45:03.332Z,9
2022-08-10T00:46:03.234Z,8
2022-08-10T00:47:02.888Z,9
2022-08-10T00:48:03.035Z,9
2022-08-10T00:49:03.318Z,8
2022-08-10T00:50:03.147Z,9
2022-08-10T00:51:03.027Z,9
2022-08-10T00:52:02.990Z,8
2022-08-10T00:53:03.015Z,9
2022-08-10T00:54:03.025Z,9
2022-08-10T00:55:03.025Z,9
2022-08-10T00:56:35.828Z,8
2022-08-10T00:57:15.988Z,9
2022-08-10T00:58:03.778Z,8
2022-08-10T00:59:03.396Z,9
2022-08-10T01:00:03.307Z,8
2022-08-10T01:01:03.329Z,8
2022-08-10T01:02:08.883Z,8
2022-08-10T01:03:02.907Z,8
2022-08-10T01:04:39.692Z,8
2022-08-10T01:05:03.148Z,8
2022-08-10T01:06:03.172Z,8
2022-08-10T01:07:03.090Z,8
2022-08-10T01:08:02.999Z,8
2022-08-10T01:09:02.892Z,8
2022-08-10T01:10:03.340Z,8
2022-08-10T01:11:03.219Z,8
2022-08-10T01:12:37.407Z,8
2022-08-10T01:13:02.677Z,8
2022-08-10T01:14:02.551Z,8
2022-08-10T01:15:03.118Z,9
2022-08-10T01:16:02.679Z,8
2022-08-10T01:17:03.282Z,8
2022-08-10T01:18:02.965Z,8
2022-08-10T01:19:03.539Z,8
2022-08-10T01:20:03.412Z,8
2022-08-10T01:21:03.316Z,8
2022-08-10T01:22:02.631Z,8
2022-08-10T01:23:02.546Z,8
2022-08-10T01:24:02.713Z,8
2022-08-10T01:25:02.741Z,8
2022-08-10T01:26:11.779Z,8
2022-08-10T01:27:02.986Z,8
2022-08-10T01:28:03.175Z,8
2022-08-10T01:29:02.940Z,8
2022-08-10T01:30:03.482Z,8
2022-08-10T01:31:03.117Z,8
2022-08-10T01:32:02.728Z,8
2022-08-10T01:33:03.171Z,8
2022-08-10T01:34:02.945Z,8
2022-08-10T01:35:02.663Z,8
2022-08-10T01:36:02.545Z,8
2022-08-10T01:37:03.116Z,8
2022-08-10T01:38:03.216Z,8
2022-08-10T01:39:03.610Z,8
2022-08-10T01:40:02.854Z,8
2022-08-10T01:41:02.925Z,8
2022-08-10T01:42:03.634Z,8
2022-08-10T01:43:08.486Z,8
2022-08-10T01:44:03.901Z,8
2022-08-10T01:45:03.576Z,8
2022-08-10T01:46:03.456Z,8
2022-08-10T01:47:03.212Z,8
2022-08-10T01:48:03.027Z,7
2022-08-10T01:49:02.969Z,8
2022-08-10T01:50:02.919Z,8
2022-08-10T01:51:02.887Z,8
2022-08-10T01:52:03.555Z,8
2022-08-10T01:53:03.337Z,7
2022-08-10T01:54:03.185Z,7
2022-08-10T01:55:03.103Z,8
2022-08-10T01:56:03.073Z,8
2022-08-10T01:57:03.776Z,8
2022-08-10T01:58:03.411Z,8
2022-08-10T01:59:03.218Z,8
2022-08-10T02:00:03.561Z,8
2022-08-10T02:01:03.818Z,8
2022-08-10T02:02:02.085Z,8
2022-08-10T02:03:02.007Z,8
2022-08-10T02:04:05.740Z,8
2022-08-10T02:05:01.743Z,8
2022-08-10T02:06:02.312Z,8
2022-08-10T02:07:02.610Z,8
2022-08-10T02:08:02.539Z,8
2022-08-10T02:09:06.606Z,7
2022-08-10T02:10:02.344Z,8
2022-08-10T02:11:02.215Z,8
2022-08-10T02:12:07.519Z,8
2022-08-10T02:13:02.663Z,8
2022-08-10T02:14:02.612Z,7
2022-08-10T02:15:02.568Z,8
2022-08-10T02:16:02.626Z,8
2022-08-10T02:17:02.218Z,8
2022-08-10T02:18:02.333Z,8
2022-08-10T02:19:01.792Z,8
2022-08-10T02:20:01.688Z,8
2022-08-10T02:21:02.260Z,8
2022-08-10T02:22:35.797Z,8
2022-08-10T02:23:02.248Z,8
2022-08-10T02:24:02.257Z,8
2022-08-10T02:25:02.156Z,8
2022-08-10T02:26:02.143Z,7
2022-08-10T02:27:02.060Z,7
2022-08-10T02:28:02.384Z,8
2022-08-10T02:29:02.294Z,7
2022-08-10T02:30:02.141Z,8
2022-08-10T02:31:02.655Z,7
2022-08-10T02:32:02.283Z,8
2022-08-10T02:33:02.513Z,7
2022-08-10T02:34:02.861Z,7
2022-08-10T02:35:03.019Z,7
2022-08-10T02:36:02.801Z,8
2022-08-10T02:37:01.777Z,7
2022-08-10T02:38:01.711Z,8
2022-08-10T02:39:01.705Z,7
2022-08-10T02:40:02.322Z,8
2022-08-10T02:45:02.061Z,8
2022-08-10T02:45:14.467Z,8
2022-08-10T02:45:20.365Z,7
2022-08-10T02:45:21.099Z,7
2022-08-10T02:45:21.567Z,8
2022-08-10T02:46:02.500Z,7
2022-08-10T02:47:02.402Z,7
2022-08-10T02:48:03.108Z,7
2022-08-10T02:49:02.742Z,7
2022-08-10T02:50:02.695Z,7
2022-08-10T02:51:02.473Z,7
2022-08-10T02:52:06.465Z,7
2022-08-10T02:53:02.395Z,7
2022-08-10T02:54:02.237Z,7
2022-08-10T02:55:06.136Z,7
2022-08-10T02:56:02.239Z,7
2022-08-10T02:57:02.230Z,8
2022-08-10T02:58:16.593Z,7
2022-08-10T02:59:02.069Z,7
2022-08-10T03:00:02.858Z,7
2022-08-10T03:01:02.684Z,7
2022-08-10T03:02:02.342Z,7
2022-08-10T03:03:02.221Z,7
2022-08-10T03:04:02.789Z,7
2022-08-10T03:05:02.689Z,7
2022-08-10T03:06:02.658Z,7
2022-08-10T03:07:02.615Z,8
2022-08-10T03:08:02.518Z,7
2022-08-10T03:09:03.113Z,7
2022-08-10T03:10:02.758Z,7
2022-08-10T03:11:02.572Z,7
2022-08-10T03:12:34.793Z,7
2022-08-10T03:13:02.129Z,8
2022-08-10T03:14:02.691Z,7
2022-08-10T03:15:02.306Z,8
2022-08-10T03:16:02.183Z,8
2022-08-10T03:17:02.815Z,7
2022-08-10T03:18:02.720Z,7
2022-08-10T03:19:02.772Z,7
2022-08-10T03:20:34.753Z,7
2022-08-10T03:21:03.261Z,7
2022-08-10T03:22:01.952Z,7
2022-08-10T03:23:01.826Z,7
2022-08-10T03:24:02.257Z,7
2022-08-10T03:25:02.243Z,7
2022-08-10T03:26:01.928Z,7
2022-08-10T03:27:02.296Z,8
2022-08-10T03:28:02.619Z,7
2022-08-10T03:29:02.548Z,7
2022-08-10T03:30:28.563Z,7
2022-08-10T03:31:02.414Z,7
2022-08-10T03:32:02.047Z,7
2022-08-10T03:33:01.939Z,7
2022-08-10T03:34:01.845Z,7
2022-08-10T03:35:02.461Z,7
2022-08-10T03:36:42.054Z,7
2022-08-10T03:37:02.402Z,7
2022-08-10T03:38:02.379Z,7
2022-08-10T03:39:02.386Z,7
2022-08-10T03:40:02.397Z,7
2022-08-10T03:41:02.312Z,7
2022-08-10T03:42:02.983Z,7
2022-08-10T03:43:03.085Z,7
2022-08-10T03:44:03.452Z,7
2022-08-10T03:45:03.201Z,7
2022-08-10T03:46:03.131Z,7
2022-08-10T03:47:02.179Z,7
2022-08-10T03:48:01.921Z,7
2022-08-10T03:49:02.127Z,7
2022-08-10T03:50:03.568Z,7
2022-08-10T03:51:01.902Z,7
2022-08-10T03:52:02.647Z,7
2022-08-10T03:53:02.634Z,7
2022-08-10T03:54:06.993Z,7
2022-08-10T03:55:02.581Z,7
2022-08-10T03:56:28.673Z,7
2022-08-10T03:57:02.583Z,7
2022-08-10T03:58:02.516Z,7
2022-08-10T03:59:02.455Z,7
2022-08-10T04:00:02.439Z,7
2022-08-10T04:01:02.780Z,7
2022-08-10T04:02:43.270Z,7
2022-08-10T04:03:02.466Z,7
2022-08-10T04:04:11.748Z,7
2022-08-10T04:05:02.484Z,7
2022-08-10T04:06:02.482Z,7
2022-08-10T04:07:03.263Z,7
2022-08-10T04:08:03.147Z,7
2022-08-10T04:09:03.225Z,7
2022-08-10T04:10:03.070Z,7
2022-08-10T04:11:03.145Z,7
2022-08-10T04:12:02.845Z,7
2022-08-10T04:13:03.039Z,7
2022-08-10T04:14:02.873Z,7
2022-08-10T04:15:02.847Z,7
2022-08-10T04:16:02.800Z,7
2022-08-10T04:17:03.551Z,7
2022-08-10T04:18:06.378Z,7
2022-08-10T04:19:03.362Z,7
2022-08-10T04:20:03.331Z,7
2022-08-10T04:21:03.312Z,7
2022-08-10T04:22:03.094Z,7
2022-08-10T04:23:03.134Z,7
2022-08-10T04:24:03.178Z,7
2022-08-10T04:25:02.665Z,7
2022-08-10T04:26:02.672Z,7
2022-08-10T04:27:03.398Z,7
2022-08-10T04:28:03.563Z,7
2022-08-10T04:29:03.318Z,7
2022-08-10T04:30:03.375Z,7
2022-08-10T04:31:03.386Z,7
2022-08-10T04:32:03.433Z,7
2022-08-10T04:33:03.654Z,7
2022-08-10T04:34:08.434Z,7
2022-08-10T04:35:03.459Z,7
2022-08-10T04:36:03.625Z,7
2022-08-10T04:37:08.153Z,7
2022-08-10T04:38:02.829Z,7
2022-08-10T04:39:02.897Z,7
2022-08-10T04:40:02.901Z,7
2022-08-10T04:41:02.712Z,7
2022-08-10T04:42:03.327Z,7
2022-08-10T04:43:09.000Z,7
2022-08-10T04:44:03.253Z,7
2022-08-10T04:45:03.317Z,7
2022-08-10T04:46:03.323Z,7
2022-08-10T04:47:03.058Z,7
2022-08-10T04:48:03.608Z,7
2022-08-10T04:49:02.702Z,7
2022-08-10T04:50:02.710Z,7
2022-08-10T04:51:02.760Z,7
2022-08-10T04:52:03.550Z,7
2022-08-10T04:53:03.699Z,7
2022-08-10T04:54:08.229Z,7
2022-08-10T04:55:03.365Z,7
2022-08-10T04:56:03.311Z,7
2022-08-10T04:57:03.074Z,7
2022-08-10T04:58:02.972Z,7
2022-08-10T04:59:02.962Z,7
2022-08-10T05:00:03.041Z,7
2022-08-10T05:01:02.752Z,7
2022-08-10T05:02:27.908Z,7
2022-08-10T05:03:03.421Z,7
2022-08-10T05:04:36.849Z,7
2022-08-10T05:05:02.968Z,7
2022-08-10T05:06:03.035Z,7
2022-08-10T05:07:03.141Z,7
2022-08-10T05:08:03.327Z,7
2022-08-10T05:09:03.272Z,7
2022-08-10T05:10:07.399Z,7
2022-08-10T05:11:03.596Z,7
2022-08-10T05:12:02.636Z,7
2022-08-10T05:13:02.728Z,7
2022-08-10T05:14:02.810Z,7
2022-08-10T05:15:02.876Z,7
2022-08-10T05:16:03.178Z,7
2022-08-10T05:17:03.189Z,7
2022-08-10T05:18:08.616Z,7
2022-08-10T05:19:03.265Z,7
2022-08-10T05:20:06.811Z,7
2022-08-10T05:21:03.476Z,8
2022-08-10T05:22:04.836Z,7
2022-08-10T05:23:02.694Z,7
2022-08-10T05:24:02.901Z,7
2022-08-10T05:25:03.052Z,7
2022-08-10T05:26:03.010Z,7
2022-08-10T05:27:10.000Z,7
2022-08-10T05:28:06.497Z,7
2022-08-10T05:29:03.085Z,7
2022-08-10T05:30:03.796Z,7
2022-08-10T05:31:03.436Z,7
2022-08-10T05:32:02.521Z,7
2022-08-10T05:33:06.498Z,7
2022-08-10T05:34:03.026Z,7
2022-08-10T05:35:02.596Z,7
2022-08-10T05:36:02.896Z,7
2022-08-10T05:37:03.035Z,7
2022-08-10T05:38:09.384Z,7
2022-08-10T05:39:03.389Z,7
2022-08-10T05:40:03.507Z,7
2022-08-10T05:41:03.207Z,7
2022-08-10T05:42:03.212Z,7
2022-08-10T05:43:03.229Z,7
2022-08-10T05:44:03.260Z,7
2022-08-10T05:45:03.386Z,7
2022-08-10T05:46:19.568Z,7
2022-08-10T05:47:03.329Z,7
2022-08-10T05:48:57.923Z,7
2022-08-10T05:49:03.529Z,7
2022-08-10T05:50:03.345Z,7
2022-08-10T05:51:03.379Z,7
2022-08-10T05:52:03.508Z,7
2022-08-10T05:53:59.887Z,7
2022-08-10T05:54:06.631Z,7
2022-08-10T05:55:03.883Z,7
2022-08-10T05:56:03.926Z,7
2022-08-10T05:57:02.844Z,7
2022-08-10T05:58:03.173Z,7
2022-08-10T05:59:03.255Z,7
2022-08-10T06:00:11.369Z,7
2022-08-10T06:01:03.231Z,8
2022-08-10T06:02:31.873Z,7
2022-08-10T06:03:03.064Z,7
2022-08-10T06:04:03.080Z,7
2022-08-10T06:05:03.205Z,7
2022-08-10T06:06:03.318Z,7
2022-08-10T06:07:02.530Z,7
2022-08-10T06:08:02.852Z,7
2022-08-10T06:09:02.617Z,7
2022-08-10T06:10:02.685Z,7
2022-08-10T06:12:26.936Z,8
2022-08-10T06:12:27.317Z,8
2022-08-10T06:13:03.302Z,7
2022-08-10T06:14:15.781Z,7
2022-08-10T06:15:05.621Z,8
2022-08-10T06:16:02.877Z,8
2022-08-10T06:17:02.904Z,7
2022-08-10T06:18:03.098Z,8
2022-08-10T06:19:03.043Z,7
2022-08-10T06:20:03.108Z,8
2022-08-10T06:21:03.131Z,8
2022-08-10T06:22:03.342Z,8
2022-08-10T06:23:03.392Z,7
2022-08-10T06:24:03.591Z,7
2022-08-10T06:26:10.019Z,8
2022-08-10T06:27:02.761Z,7
2022-08-10T06:28:02.776Z,7
2022-08-10T06:29:04.156Z,8
2022-08-10T06:30:02.685Z,8
2022-08-10T06:31:02.869Z,8
2022-08-10T06:32:03.006Z,8
2022-08-10T06:33:03.139Z,8
2022-08-10T06:34:03.196Z,8
2022-08-10T06:35:03.301Z,8
2022-08-10T06:36:03.183Z,8
2022-08-10T06:37:03.319Z,8
2022-08-10T06:38:03.376Z,8
2022-08-10T06:39:29.970Z,8
2022-08-10T06:40:03.540Z,8
2022-08-10T06:41:03.406Z,8
2022-08-10T06:42:15.892Z,8
2022-08-10T06:43:03.494Z,8
2022-08-10T06:44:03.892Z,8
2022-08-10T06:45:03.743Z,8
2022-08-10T06:46:07.288Z,8
2022-08-10T06:47:02.868Z,8
2022-08-10T06:48:02.941Z,8
2022-08-10T06:49:02.974Z,8
2022-08-10T06:50:04.884Z,8
2022-08-10T06:51:03.304Z,8
2022-08-10T06:52:03.345Z,8
2022-08-10T06:53:03.661Z,8
2022-08-10T06:54:03.558Z,8
2022-08-10T06:55:05.057Z,8
2022-08-10T06:56:03.255Z,8
2022-08-10T06:57:17.657Z,8
2022-08-10T06:58:03.177Z,8
2022-08-10T06:59:03.200Z,8
2022-08-10T07:00:03.275Z,9
2022-08-10T07:01:02.737Z,8
2022-08-10T07:02:02.534Z,8
2022-08-10T07:03:02.630Z,8
2022-08-10T07:04:02.266Z,8
2022-08-10T07:05:02.657Z,8
2022-08-10T07:06:02.645Z,8
2022-08-10T07:07:02.907Z,8
2022-08-10T07:08:02.908Z,8
2022-08-10T07:09:02.977Z,8
2022-08-10T07:10:03.115Z,8
2022-08-10T07:11:02.994Z,8
2022-08-10T07:12:08.319Z,8
2022-08-10T07:13:02.659Z,8
2022-08-10T07:14:17.512Z,8
2022-08-10T07:15:03.170Z,8
2022-08-10T07:16:02.641Z,8
2022-08-10T07:17:03.226Z,8
2022-08-10T07:18:03.114Z,8
2022-08-10T07:19:03.278Z,8
2022-08-10T07:20:04.347Z,8
2022-08-10T07:21:03.519Z,8
2022-08-10T07:22:02.282Z,8
2022-08-10T07:23:56.234Z,8
2022-08-10T07:24:03.240Z,7
2022-08-10T07:25:02.682Z,8
2022-08-10T07:26:02.834Z,8
2022-08-10T07:27:03.012Z,8
2022-08-10T07:28:02.972Z,7
2022-08-10T07:29:02.613Z,7
2022-08-10T07:30:02.701Z,8
2022-08-10T07:31:02.987Z,8
2022-08-10T07:32:03.634Z,7
2022-08-10T07:33:03.307Z,7
2022-08-10T07:34:03.472Z,7
2022-08-10T07:35:03.307Z,8
2022-08-10T07:36:03.127Z,8
2022-08-10T07:37:02.937Z,7
2022-08-10T07:38:02.748Z,7
2022-08-10T07:39:02.802Z,7
2022-08-10T07:40:04.873Z,8
2022-08-10T07:41:02.355Z,8
2022-08-10T07:42:02.991Z,7
2022-08-10T07:43:02.468Z,7
2022-08-10T07:44:02.847Z,7
2022-08-10T07:45:02.976Z,8
2022-08-10T07:46:03.030Z,7
2022-08-10T07:47:02.846Z,7
2022-08-10T07:48:07.459Z,7
2022-08-10T07:49:03.188Z,7
2022-08-10T07:50:03.381Z,7
2022-08-10T07:51:03.398Z,7
2022-08-10T07:52:02.968Z,7
2022-08-10T07:53:02.867Z,7
2022-08-10T07:54:02.497Z,7
2022-08-10T07:55:02.726Z,7
2022-08-10T07:56:13.226Z,7
2022-08-10T07:57:03.599Z,7
2022-08-10T07:58:03.606Z,7
2022-08-10T07:59:03.466Z,7
2022-08-10T08:00:04.472Z,7
2022-08-10T08:01:03.525Z,7
2022-08-10T08:02:03.645Z,7
2022-08-10T08:03:03.557Z,7
2022-08-10T08:04:10.802Z,6
2022-08-10T08:05:03.694Z,7
2022-08-10T08:06:11.450Z,7
2022-08-10T08:07:02.592Z,7
2022-08-10T08:08:02.662Z,7
2022-08-10T08:09:02.798Z,7
2022-08-10T08:10:02.732Z,7
2022-08-10T08:11:02.729Z,7
2022-08-10T08:12:02.723Z,7
2022-08-10T08:13:02.893Z,6
2022-08-10T08:14:03.307Z,6
2022-08-10T08:16:17.054Z,7
2022-08-10T08:16:18.013Z,7
2022-08-10T08:17:03.031Z,6
2022-08-10T08:18:03.547Z,7
2022-08-10T08:19:27.975Z,7
2022-08-10T08:20:03.096Z,7
2022-08-10T08:21:03.296Z,7
2022-08-10T08:24:11.137Z,6
2022-08-10T08:24:14.653Z,7
2022-08-10T08:24:31.076Z,7
2022-08-10T08:25:02.613Z,7
2022-08-10T08:26:03.031Z,7
2022-08-10T08:27:02.827Z,7
2022-08-10T08:28:02.888Z,7
2022-08-10T08:29:05.020Z,7
2022-08-10T08:30:03.098Z,7
2022-08-10T08:31:03.235Z,7
2022-08-10T08:32:03.984Z,7
2022-08-10T08:33:03.953Z,7
2022-08-10T08:34:03.692Z,7
2022-08-10T08:35:03.437Z,7
2022-08-10T08:36:03.366Z,7
2022-08-10T08:37:03.440Z,7
2022-08-10T08:38:29.302Z,7
2022-08-10T08:39:03.421Z,7
2022-08-10T08:40:03.984Z,7
2022-08-10T08:41:03.999Z,7
2022-08-10T08:42:03.150Z,7
2022-08-10T08:43:03.194Z,6
2022-08-10T08:44:03.661Z,7
2022-08-10T08:45:03.428Z,7
2022-08-10T08:46:03.558Z,7
2022-08-10T08:47:03.403Z,7
2022-08-10T08:48:06.334Z,7
2022-08-10T08:49:03.903Z,7
2022-08-10T08:50:07.635Z,7
2022-08-10T08:51:03.785Z,7
2022-08-10T08:52:07.063Z,7
2022-08-10T08:53:02.976Z,7
2022-08-10T08:54:04.110Z,7
2022-08-10T08:55:03.368Z,7
2022-08-10T08:56:06.953Z,7
2022-08-10T08:57:03.238Z,7
2022-08-10T08:58:03.391Z,7
2022-08-10T08:59:03.371Z,7
2022-08-10T09:00:03.320Z,7
2022-08-10T09:01:03.550Z,8
2022-08-10T09:02:02.523Z,7
2022-08-10T09:03:02.620Z,7
2022-08-10T09:04:02.750Z,7
2022-08-10T09:05:02.902Z,7
2022-08-10T09:06:02.827Z,8
2022-08-10T09:07:03.125Z,7
2022-08-10T09:08:03.426Z,7
2022-08-10T09:09:03.478Z,7
2022-08-10T09:10:03.492Z,7
2022-08-10T09:11:03.314Z,7
2022-08-10T09:12:02.722Z,7
2022-08-10T09:13:02.714Z,7
2022-08-10T09:14:02.679Z,7
2022-08-10T09:15:02.563Z,7
2022-08-10T09:16:02.691Z,7
2022-08-10T09:17:03.359Z,7
2022-08-10T09:18:03.500Z,7
2022-08-10T09:19:03.580Z,7
2022-08-10T09:20:03.695Z,7
2022-08-10T09:21:03.145Z,7
2022-08-10T09:22:13.196Z,7
2022-08-10T09:23:02.866Z,7
2022-08-10T09:24:05.773Z,7
2022-08-10T09:25:03.346Z,7
2022-08-10T09:26:03.225Z,7
2022-08-10T09:27:03.309Z,8
2022-08-10T09:28:03.444Z,7
2022-08-10T09:29:13.273Z,7
2022-08-10T09:30:03.479Z,7
2022-08-10T09:31:21.360Z,7
2022-08-10T09:33:07.671Z,7
2022-08-10T09:36:20.092Z,7
2022-08-10T09:36:20.305Z,7
2022-08-10T09:36:22.103Z,8
2022-08-10T09:36:26.579Z,7
2022-08-10T09:37:02.858Z,7
2022-08-10T09:38:03.332Z,7
2022-08-10T09:39:02.975Z,7
2022-08-10T09:40:56.715Z,7
2022-08-10T09:41:06.331Z,7
2022-08-10T09:42:03.356Z,7
2022-08-10T09:43:25.599Z,7
2022-08-10T09:44:03.454Z,7
2022-08-10T09:45:03.608Z,7
2022-08-10T09:46:03.420Z,8
2022-08-10T09:47:03.449Z,7
2022-08-10T09:48:03.565Z,7
2022-08-10T09:49:03.570Z,7
2022-08-10T09:50:04.915Z,7
2022-08-10T09:52:03.498Z,7
2022-08-10T09:53:03.516Z,7
2022-08-10T09:54:03.700Z,7
2022-08-10T09:55:03.425Z,7
2022-08-10T09:56:17.633Z,7
2022-08-10T09:57:43.515Z,7
2022-08-10T09:58:03.908Z,7
2022-08-10T09:59:59.564Z,7
2022-08-10T10:00:03.525Z,7
2022-08-10T10:01:04.031Z,7
2022-08-10T10:02:04.471Z,7
2022-08-10T10:03:02.749Z,7
2022-08-10T10:04:02.638Z,7
2022-08-10T10:05:02.870Z,7
2022-08-10T10:06:02.997Z,7
2022-08-10T10:07:03.204Z,7
2022-08-10T10:08:03.360Z,7
2022-08-10T10:09:10.517Z,7
2022-08-10T10:10:02.992Z,8
2022-08-10T10:11:03.319Z,8
2022-08-10T10:12:05.258Z,8
2022-08-10T10:13:03.481Z,7
2022-08-10T10:14:06.424Z,7
2022-08-10T10:15:02.968Z,7
2022-08-10T10:16:03.115Z,7
2022-08-10T10:17:02.943Z,7
2022-08-10T10:18:03.042Z,7
2022-08-10T10:19:02.565Z,7
2022-08-10T10:20:02.714Z,8
2022-08-10T10:21:02.654Z,8
2022-08-10T10:22:03.178Z,7
2022-08-10T10:23:02.805Z,8
2022-08-10T10:24:21.127Z,8
2022-08-10T10:25:21.079Z,8
2022-08-10T10:26:08.461Z,8
2022-08-10T10:27:03.551Z,8
2022-08-10T10:28:03.211Z,7
2022-08-10T10:30:03.268Z,8
2022-08-10T10:31:03.439Z,8
2022-08-10T10:32:03.571Z,8
2022-08-10T10:33:03.749Z,8
2022-08-10T10:34:03.322Z,8
2022-08-10T10:35:03.150Z,8
2022-08-10T10:36:03.390Z,8
2022-08-10T10:37:04.102Z,8
2022-08-10T10:38:04.291Z,8
2022-08-10T10:39:04.097Z,8
2022-08-10T10:40:04.018Z,8
2022-08-10T10:41:04.069Z,8
2022-08-10T10:42:04.984Z,8
2022-08-10T10:43:03.896Z,8
2022-08-10T10:44:03.408Z,8
2022-08-10T10:45:03.778Z,8
2022-08-10T10:46:03.837Z,8
2022-08-10T10:47:03.578Z,8
2022-08-10T10:48:03.052Z,8
2022-08-10T10:49:03.346Z,8
2022-08-10T10:50:03.402Z,8
2022-08-10T10:51:07.157Z,9
2022-08-10T10:52:04.305Z,8
2022-08-10T10:53:04.555Z,8
2022-08-10T10:54:04.060Z,8
2022-08-10T10:55:03.780Z,8
2022-08-10T10:56:15.516Z,9
2022-08-10T10:57:03.628Z,8
2022-08-10T10:58:03.568Z,8
2022-08-10T10:59:53.371Z,8
2022-08-10T11:00:03.548Z,8
2022-08-10T11:01:03.089Z,9
2022-08-10T11:02:02.526Z,8
2022-08-10T11:03:02.682Z,8
2022-08-10T11:04:02.761Z,8
2022-08-10T11:05:02.755Z,9
2022-08-10T11:06:02.827Z,9
2022-08-10T11:07:03.010Z,9
2022-08-10T11:08:03.133Z,8
2022-08-10T11:09:03.257Z,8
2022-08-10T11:10:19.770Z,9
2022-08-10T11:11:03.319Z,9
2022-08-10T11:12:04.847Z,8
2022-08-10T11:14:23.244Z,8
2022-08-10T11:14:25.316Z,8
2022-08-10T11:15:03.643Z,9
2022-08-10T11:16:03.933Z,9
2022-08-10T11:17:03.958Z,9
2022-08-10T11:18:03.110Z,9
2022-08-10T11:19:03.199Z,9
2022-08-10T11:20:04.179Z,9
2022-08-10T11:21:03.155Z,9
2022-08-10T11:22:03.263Z,9
2022-08-10T11:23:03.903Z,9
2022-08-10T11:24:48.583Z,9
2022-08-10T11:25:04.149Z,9
2022-08-10T11:26:03.929Z,9
2022-08-10T11:27:03.971Z,9
2022-08-10T11:28:03.828Z,9
2022-08-10T11:29:03.710Z,9
2022-08-10T11:30:03.182Z,9
2022-08-10T11:31:03.341Z,10
2022-08-10T11:32:03.495Z,9
2022-08-10T11:33:03.179Z,9
2022-08-10T11:34:47.453Z,9
2022-08-10T11:35:11.626Z,9
2022-08-10T11:36:03.195Z,10
2022-08-10T11:37:03.414Z,10
2022-08-10T11:38:29.620Z,9
2022-08-10T11:39:18.729Z,10
2022-08-10T11:40:03.762Z,9
2022-08-10T11:41:12.836Z,10
2022-08-10T11:42:11.509Z,10
2022-08-10T11:43:03.391Z,9
2022-08-10T11:44:03.530Z,9
2022-08-10T11:45:03.614Z,10
2022-08-10T11:46:07.860Z,10
2022-08-10T11:47:03.886Z,10
2022-08-10T11:48:03.986Z,9
2022-08-10T11:49:04.203Z,10
2022-08-10T11:50:04.157Z,10
2022-08-10T11:51:04.115Z,10
2022-08-10T11:52:03.563Z,10
2022-08-10T11:53:03.523Z,9
2022-08-10T11:54:03.284Z,9
2022-08-10T11:55:03.388Z,10
2022-08-10T11:56:04.604Z,10
2022-08-10T11:57:03.594Z,10
2022-08-10T11:58:04.184Z,10
2022-08-10T11:59:16.431Z,10
2022-08-10T12:00:04.141Z,10
2022-08-10T12:01:03.767Z,10
2022-08-10T12:02:04.255Z,10
2022-08-10T12:03:02.403Z,10
2022-08-10T12:04:02.511Z,10
2022-08-10T12:05:02.775Z,10
2022-08-10T12:06:02.998Z,11
2022-08-10T12:07:02.533Z,10
2022-08-10T12:10:02.350Z,10
2022-08-10T12:10:09.139Z,10
2022-08-10T12:10:13.105Z,10
2022-08-10T12:11:02.944Z,11
2022-08-10T12:12:03.128Z,10
2022-08-10T12:13:02.486Z,10
2022-08-10T12:14:20.874Z,10
2022-08-10T12:15:02.752Z,10
2022-08-10T12:16:05.536Z,11
2022-08-10T12:17:02.637Z,11
2022-08-10T12:18:02.814Z,10
2022-08-10T12:19:03.384Z,11
2022-08-10T12:20:03.898Z,10
2022-08-10T12:21:03.352Z,11
2022-08-10T12:22:06.045Z,11
2022-08-10T12:23:02.909Z,11
2022-08-10T12:24:03.600Z,11
2022-08-10T12:25:03.479Z,11
2022-08-10T12:26:03.158Z,11
2022-08-10T12:27:03.278Z,11
2022-08-10T12:28:02.473Z,11
2022-08-10T12:29:02.671Z,10
2022-08-10T12:30:02.825Z,11
2022-08-10T12:31:02.967Z,11
2022-08-10T12:32:03.062Z,11
2022-08-10T12:33:03.272Z,11
2022-08-10T12:34:03.408Z,11
2022-08-10T12:35:03.609Z,11
2022-08-10T12:36:17.843Z,11
2022-08-10T12:37:03.381Z,11
2022-08-10T12:38:02.573Z,11
2022-08-10T12:39:02.650Z,11
2022-08-10T12:40:31.773Z,11
2022-08-10T12:41:02.665Z,11
2022-08-10T12:42:02.686Z,11
2022-08-10T12:43:12.934Z,10
2022-08-10T12:44:07.667Z,11
2022-08-10T12:45:02.870Z,11
2022-08-10T12:46:06.568Z,11
2022-08-10T12:47:10.531Z,11
2022-08-10T12:48:03.264Z,11
2022-08-10T12:49:03.437Z,11
2022-08-10T12:50:29.358Z,11
2022-08-10T12:51:03.662Z,12
2022-08-10T12:52:03.799Z,11
2022-08-10T12:53:06.412Z,11
2022-08-10T12:54:02.942Z,11
2022-08-10T12:55:03.090Z,11
2022-08-10T12:56:03.185Z,12
2022-08-10T12:57:03.084Z,11
2022-08-10T12:58:05.549Z,11
2022-08-10T12:59:03.421Z,11
2022-08-10T13:00:03.573Z,11
2022-08-10T13:01:16.268Z,12
2022-08-10T13:02:06.454Z,12
2022-08-10T13:03:02.511Z,11
2022-08-10T13:04:21.673Z,11
2022-08-10T13:05:02.726Z,12
2022-08-10T13:06:03.066Z,12
2022-08-10T13:07:03.004Z,12
2022-08-10T13:08:26.571Z,11
2022-08-10T13:09:03.489Z,11
2022-08-10T13:10:03.004Z,11
2022-08-10T13:11:03.207Z,12
2022-08-10T13:12:36.531Z,12
2022-08-10T13:13:03.448Z,11
2022-08-10T13:14:03.994Z,11
2022-08-10T13:15:03.849Z,11
2022-08-10T13:16:04.013Z,12
2022-08-10T13:17:03.893Z,12
2022-08-10T13:18:03.444Z,11
2022-08-10T13:19:03.326Z,11
2022-08-10T13:20:13.022Z,12
2022-08-10T13:21:03.344Z,12
2022-08-10T13:22:03.402Z,12
2022-08-10T13:23:03.723Z,11
2022-08-10T13:24:05.057Z,11
2022-08-10T13:25:03.885Z,11
2022-08-10T13:26:03.596Z,12
2022-08-10T13:27:25.832Z,12
2022-08-10T13:28:35.470Z,11
2022-08-10T13:29:04.222Z,11
2022-08-10T13:30:04.190Z,12
2022-08-10T13:31:03.999Z,12
2022-08-10T13:32:10.359Z,12
2022-08-10T13:33:03.196Z,12
2022-08-10T13:34:39.953Z,12
2022-08-10T13:35:03.578Z,12
2022-08-10T13:36:03.574Z,13
2022-08-10T13:37:03.549Z,13
2022-08-10T13:38:03.881Z,12
2022-08-10T13:39:04.037Z,12
2022-08-10T13:40:04.148Z,12
2022-08-10T13:41:03.847Z,12
2022-08-10T13:42:03.686Z,13
2022-08-10T13:43:03.757Z,12
2022-08-10T13:44:03.912Z,12
2022-08-10T13:45:03.955Z,13
2022-08-10T13:46:04.209Z,13
2022-08-10T13:47:03.995Z,12
2022-08-10T13:48:04.190Z,12
2022-08-10T13:49:04.308Z,12
2022-08-10T13:50:03.854Z,12
2022-08-10T13:51:04.008Z,13
2022-08-10T13:52:04.047Z,13
2022-08-10T13:53:03.871Z,12
2022-08-10T13:54:04.067Z,12
2022-08-10T13:55:03.570Z,13
2022-08-10T13:56:03.780Z,13
2022-08-10T13:57:03.863Z,13
2022-08-10T13:58:03.669Z,12
2022-08-10T13:59:07.998Z,12
2022-08-10T14:00:33.692Z,13
2022-08-10T14:01:03.723Z,13
2022-08-10T14:02:04.109Z,13
2022-08-10T14:03:02.982Z,13
2022-08-10T14:04:03.128Z,13
2022-08-10T14:05:02.615Z,13
2022-08-10T14:06:02.816Z,13
2022-08-10T14:07:02.904Z,14
2022-08-10T14:08:02.767Z,12
2022-08-10T14:09:02.838Z,13
2022-08-10T14:10:02.321Z,13
2022-08-10T14:11:10.963Z,13
2022-08-10T14:12:02.777Z,13
2022-08-10T14:13:02.965Z,12
2022-08-10T14:14:02.972Z,13
2022-08-10T14:15:02.963Z,13
2022-08-10T14:16:02.944Z,13
2022-08-10T14:17:02.492Z,13
2022-08-10T14:18:03.344Z,13
2022-08-10T14:19:03.451Z,13
2022-08-10T14:20:03.532Z,13
2022-08-10T14:21:05.134Z,13
2022-08-10T14:22:03.355Z,13
2022-08-10T14:23:03.409Z,13
2022-08-10T14:24:03.501Z,13
2022-08-10T14:25:02.980Z,13
2022-08-10T14:26:08.558Z,13
2022-08-10T14:27:03.571Z,13
2022-08-10T14:28:04.224Z,12
2022-08-10T14:29:02.713Z,13
2022-08-10T14:30:02.859Z,13
2022-08-10T14:31:03.183Z,13
2022-08-10T14:32:03.354Z,14
2022-08-10T14:33:02.882Z,13
2022-08-10T14:34:02.917Z,13
2022-08-10T14:36:19.267Z,14
2022-08-10T14:36:19.499Z,13
2022-08-10T14:37:02.925Z,14
2022-08-10T14:38:02.454Z,13
2022-08-10T14:39:02.483Z,13
2022-08-10T14:40:02.584Z,13
2022-08-10T14:41:02.623Z,13
2022-08-10T14:42:09.882Z,13